Everton, United Kingdom
Current Conditions -  °F | °C
As of 1:50 PM on Saturday 20 Dec 2014 (Local Time) from EGCN Reporting Station
Broken Clouds Broken Clouds  
Wind Chill:   Ceiling: 2500
Heat Index:   Visibility: 6mi
Dew Point:   Wind: 18mph
Humidity: 71%   Direction: 280°W
Pressure: 30.24"   Gusts: NA
Location:  53.4°N, 0.9°W
Report Text: EGCN 201350Z 28016KT 9999 BKN025 09/04 Q1024
Loading
Personal Weather Stations






























Interactive Weather Map New forecast layout! Learn more

10-Day Weather Forecast

Advertisements
Track Severe Weather on mobile